Time;durP1;ratioP1;P1;durP2;ratioP2;P2;SDS_P1;SDS_P2;PMS_P1;PMS_P2;Temp;Humidity;BMP_temperature;BMP_pressure;BME280_temperature;BME280_humidity;BME280_pressure;Samples;Min_cycle;Max_cycle;Signal;HPM_P1;HPM_P2
2021/09/01 12:06:57;;;;;;;14.63;9.38;;;16.70;99.90;;;;;;5070734;28;20550;-70
2021/09/01 12:09:27;;;;;;;12.02;8.73;;;16.60;99.90;;;;;;5069421;28;20208;-71
2021/09/01 12:11:58;;;;;;;10.13;8.63;;;16.70;99.90;;;;;;5069347;28;20173;-71
2021/09/01 12:14:29;;;;;;;11.52;7.78;;;16.60;99.90;;;;;;5070591;28;20247;-71
2021/09/01 12:17:22;;;;;;;14.45;8.93;;;16.70;99.90;;;;;;5070616;28;20176;-71
2021/09/01 12:19:51;;;;;;;9.20;8.20;;;16.70;99.90;;;;;;5069189;28;20578;-71
2021/09/01 12:22:34;;;;;;;8.88;8.00;;;16.70;99.90;;;;;;5069082;28;20172;-71
2021/09/01 12:25:09;;;;;;;9.93;7.75;;;16.80;99.90;;;;;;5070161;28;25148;-71
2021/09/01 12:27:36;;;;;;;9.50;8.20;;;16.80;99.90;;;;;;5069019;28;20637;-71
2021/09/01 12:30:06;;;;;;;8.88;8.07;;;16.80;99.90;;;;;;5070278;28;20176;-71
2021/09/01 12:32:32;;;;;;;9.18;8.15;;;16.80;99.90;;;;;;5070218;28;20194;-71
2021/09/01 12:35:01;;;;;;;12.25;8.30;;;16.90;99.90;;;;;;5070180;28;20196;-71
2021/09/01 12:37:28;;;;;;;12.27;8.95;;;16.90;99.90;;;;;;5070122;28;20179;-71
2021/09/01 12:40:03;;;;;;;9.68;8.15;;;17.00;99.90;;;;;;5068840;28;20172;-69
2021/09/01 12:42:40;;;;;;;10.70;8.27;;;17.00;99.90;;;;;;5069739;28;20730;-70
2021/09/01 12:45:19;;;;;;;9.50;7.88;;;17.00;99.90;;;;;;5069844;28;20202;-70
2021/09/01 12:47:53;;;;;;;10.88;8.38;;;16.90;99.90;;;;;;5069980;28;20170;-70
2021/09/01 12:50:19;;;;;;;10.18;7.85;;;16.80;99.90;;;;;;5069868;28;20554;-70
2021/09/01 12:52:44;;;;;;;13.10;8.65;;;16.80;99.90;;;;;;5069843;28;20176;-70
2021/09/01 12:55:10;;;;;;;9.63;8.60;;;16.70;99.90;;;;;;5069721;28;20183;-70
2021/09/01 12:57:36;;;;;;;10.98;8.57;;;16.80;99.90;;;;;;5069598;28;20642;-70
2021/09/01 13:00:04;;;;;;;12.23;9.15;;;16.70;99.90;;;;;;5068374;28;20199;-70
2021/09/01 13:02:30;;;;;;;10.45;7.85;;;16.60;99.90;;;;;;5069561;28;20176;-70
2021/09/01 13:04:56;;;;;;;9.52;8.55;;;16.60;99.90;;;;;;5069486;28;20220;-70
2021/09/01 13:07:22;;;;;;;15.90;9.63;;;16.60;99.90;;;;;;5069499;28;20171;-70
2021/09/01 13:09:48;;;;;;;15.07;9.07;;;16.50;99.90;;;;;;5068166;28;20227;-70
2021/09/01 13:12:15;;;;;;;17.20;8.90;;;16.40;99.90;;;;;;5069341;28;20646;-70
2021/09/01 13:14:41;;;;;;;15.02;8.85;;;16.40;99.90;;;;;;5069343;28;20638;-69
2021/09/01 13:17:08;;;;;;;15.18;8.90;;;16.50;99.90;;;;;;5062358;28;20188;-69
2021/09/01 13:19:33;;;;;;;11.68;8.77;;;16.40;99.90;;;;;;5056121;28;20188;-69
2021/09/01 13:22:00;;;;;;;13.23;9.02;;;16.30;99.90;;;;;;5056109;28;20220;-69
2021/09/01 13:24:26;;;;;;;13.45;9.77;;;16.40;99.90;;;;;;5055974;28;20238;-70
2021/09/01 13:26:51;;;;;;;15.13;9.45;;;16.40;99.90;;;;;;5055957;28;20232;-70
2021/09/01 13:29:17;;;;;;;14.68;9.57;;;16.40;99.90;;;;;;5055913;28;20223;-69
2021/09/01 13:31:42;;;;;;;12.30;9.00;;;16.40;99.90;;;;;;5055868;28;20283;-69
2021/09/01 13:34:08;;;;;;;16.08;9.57;;;16.40;99.90;;;;;;5054477;28;20169;-70
2021/09/01 13:36:34;;;;;;;12.07;8.68;;;16.30;99.90;;;;;;5055783;28;20173;-70
2021/09/01 13:38:59;;;;;;;12.75;8.88;;;16.20;99.90;;;;;;5055686;28;20173;-70
2021/09/01 13:41:25;;;;;;;13.02;9.27;;;16.40;99.90;;;;;;5055624;28;20173;-69
2021/09/01 13:43:51;;;;;;;13.57;8.32;;;16.30;99.90;;;;;;5055627;28;20200;-69
2021/09/01 13:46:16;;;;;;;13.65;8.75;;;16.20;99.90;;;;;;5055487;28;20205;-70
2021/09/01 13:48:42;;;;;;;11.77;8.82;;;16.20;99.90;;;;;;5055497;28;20627;-69
2021/09/01 13:51:08;;;;;;;13.07;8.95;;;16.20;99.90;;;;;;5054214;28;20169;-70
2021/09/01 13:53:34;;;;;;;12.35;8.85;;;16.10;99.90;;;;;;5055414;28;20192;-70
2021/09/01 13:56:03;;;;;;;15.15;8.60;;;16.10;99.90;;;;;;5055316;28;20689;-69
2021/09/01 13:58:29;;;;;;;12.18;8.77;;;16.10;99.90;;;;;;5055337;28;20176;-70
2021/09/01 14:00:56;;;;;;;12.77;8.48;;;16.10;99.90;;;;;;5055335;28;20169;-69
2021/09/01 14:03:24;;;;;;;10.45;8.02;;;16.10;99.90;;;;;;5055228;28;20165;-70
2021/09/01 14:05:50;;;;;;;13.65;8.15;;;16.10;99.90;;;;;;5055011;28;20217;-70
2021/09/01 14:08:16;;;;;;;10.48;7.88;;;16.10;99.90;;;;;;5055205;28;20169;-70
2021/09/01 14:10:42;;;;;;;15.15;7.72;;;16.10;99.90;;;;;;5055089;28;20643;-70
2021/09/01 14:13:08;;;;;;;10.57;7.47;;;16.10;99.90;;;;;;5054956;28;20173;-69
2021/09/01 14:28:11;;;;;;;11.73;7.20;;;17.10;99.90;;;;;;5173419;27;20549;-70
2021/09/01 14:30:38;;;;;;;13.20;8.75;;;16.10;99.90;;;;;;5173664;27;20169;-71
2021/09/01 14:33:07;;;;;;;16.85;8.35;;;16.10;99.90;;;;;;5173253;27;20182;-71
2021/09/01 14:35:35;;;;;;;13.73;7.88;;;16.10;99.90;;;;;;5173160;27;20175;-71
2021/09/01 14:38:01;;;;;;;17.33;8.13;;;16.00;99.90;;;;;;5173147;27;20161;-71
2021/09/01 14:40:28;;;;;;;11.25;8.13;;;16.00;99.90;;;;;;5173096;27;20196;-71
2021/09/01 14:42:54;;;;;;;12.10;7.50;;;16.00;99.90;;;;;;5173071;27;20217;-71
2021/09/01 14:45:20;;;;;;;12.10;7.75;;;16.00;99.90;;;;;;5173003;27;20244;-71
2021/09/01 14:47:46;;;;;;;11.15;8.85;;;16.00;99.90;;;;;;5154288;27;20284;-71
2021/09/01 14:50:11;;;;;;;12.60;7.75;;;15.90;99.90;;;;;;5172853;27;20271;-68
2021/09/01 14:52:37;;;;;;;15.85;8.48;;;15.90;99.90;;;;;;5172806;27;20566;-68
2021/09/01 14:55:03;;;;;;;12.95;8.60;;;15.90;99.90;;;;;;5172796;27;20177;-68
2021/09/01 14:57:29;;;;;;;17.55;9.63;;;16.00;99.90;;;;;;5172768;27;20755;-68
2021/09/01 14:59:55;;;;;;;19.02;9.40;;;15.90;99.90;;;;;;5154315;27;20165;-68
2021/09/01 15:02:20;;;;;;;14.52;8.88;;;16.00;99.90;;;;;;5172666;27;20158;-68
2021/09/01 15:04:46;;;;;;;10.45;7.50;;;16.00;99.90;;;;;;5153831;27;20634;-68
2021/09/01 15:07:12;;;;;;;11.95;7.70;;;16.00;99.90;;;;;;5172459;27;20203;-68
2021/09/01 15:09:37;;;;;;;15.75;8.30;;;16.00;99.90;;;;;;5172420;27;20637;-68
2021/09/01 15:12:04;;;;;;;11.32;8.60;;;16.00;99.90;;;;;;5172434;27;20494;-68
2021/09/01 15:14:33;;;;;;;12.85;8.23;;;16.10;99.90;;;;;;5172295;27;20233;-68
2021/09/01 15:16:58;;;;;;;11.10;8.07;;;16.00;99.90;;;;;;5153625;27;20178;-68
2021/09/01 15:19:24;;;;;;;13.35;7.88;;;16.10;99.90;;;;;;5161987;27;20193;-68
2021/09/01 15:21:49;;;;;;;12.80;8.50;;;16.10;99.90;;;;;;5151354;27;20176;-69
2021/09/01 15:24:16;;;;;;;16.60;9.30;;;16.10;99.90;;;;;;5151279;27;20166;-70
2021/09/01 15:26:42;;;;;;;11.77;8.70;;;16.10;99.90;;;;;;5151013;27;20206;-71
2021/09/01 15:29:08;;;;;;;13.77;8.98;;;16.10;99.90;;;;;;5151198;27;20696;-71
2021/09/01 15:31:34;;;;;;;20.75;10.80;;;16.20;99.90;;;;;;5151168;27;20162;-71
2021/09/01 15:33:59;;;;;;;13.98;8.90;;;16.30;99.90;;;;;;5151110;27;20215;-71
2021/09/01 15:36:25;;;;;;;13.27;8.13;;;16.40;99.90;;;;;;5151009;27;20550;-71
2021/09/01 15:38:51;;;;;;;14.50;8.50;;;16.50;99.90;;;;;;5141179;27;20171;-70
2021/09/01 15:41:16;;;;;;;10.70;7.93;;;16.50;99.90;;;;;;5118690;27;20174;-71
2021/09/01 15:43:43;;;;;;;9.52;7.50;;;16.40;99.90;;;;;;5137168;27;20181;-71
2021/09/01 15:46:12;;;;;;;11.43;8.98;;;16.50;99.90;;;;;;5136977;27;20190;-71
2021/09/01 15:48:59;;;;;;;8.43;7.55;;;16.50;99.90;;;;;;5136747;27;20165;-71
2021/09/01 15:51:32;;;;;;;11.35;7.15;;;16.50;99.90;;;;;;5136888;27;20188;-71
2021/09/01 15:54:00;;;;;;;11.07;7.80;;;16.60;99.90;;;;;;5136950;27;20166;-71
2021/09/01 15:56:28;;;;;;;14.13;7.82;;;16.60;99.90;;;;;;5136878;27;20175;-71
2021/09/01 15:58:54;;;;;;;12.00;7.80;;;16.60;99.90;;;;;;5136886;27;20163;-70
2021/09/01 16:01:22;;;;;;;12.52;8.57;;;16.60;99.90;;;;;;5136906;27;20232;-71
2021/09/01 16:03:48;;;;;;;12.27;7.88;;;16.60;99.90;;;;;;5136862;27;20715;-71
2021/09/01 16:06:14;;;;;;;9.82;7.57;;;16.60;99.90;;;;;;5136676;27;20654;-71
2021/09/01 16:08:40;;;;;;;12.35;8.02;;;16.60;99.90;;;;;;5136749;27;20170;-71
2021/09/01 16:11:12;;;;;;;13.40;8.20;;;16.60;99.90;;;;;;5136652;27;20227;-71
2021/09/01 16:13:52;;;;;;;11.80;7.10;;;16.50;99.90;;;;;;5136600;27;20569;-71
2021/09/01 16:16:23;;;;;;;11.85;7.32;;;16.60;99.90;;;;;;5136328;27;20252;-70
2021/09/01 16:19:00;;;;;;;12.02;7.35;;;16.50;99.90;;;;;;5136377;27;20476;-71
2021/09/01 16:21:31;;;;;;;13.32;6.97;;;16.40;99.90;;;;;;5136393;27;20158;-71
2021/09/01 16:23:58;;;;;;;9.30;6.85;;;16.40;99.90;;;;;;5136302;27;20167;-71
2021/09/01 16:26:24;;;;;;;11.63;7.78;;;16.40;99.90;;;;;;5117589;27;20222;-71
2021/09/01 16:28:52;;;;;;;10.95;7.43;;;16.30;99.90;;;;;;5136264;27;20698;-71
2021/09/01 16:31:19;;;;;;;10.93;7.97;;;16.30;99.90;;;;;;5136074;27;20188;-70
2021/09/01 16:33:44;;;;;;;24.73;9.27;;;16.20;99.90;;;;;;5136166;27;20155;-70
2021/09/01 16:36:10;;;;;;;16.05;9.05;;;16.10;99.90;;;;;;5136078;27;20493;-71
2021/09/01 16:38:39;;;;;;;10.82;8.80;;;16.10;99.90;;;;;;5136006;27;20522;-71
2021/09/01 16:41:07;;;;;;;21.02;9.55;;;16.00;99.90;;;;;;5135987;27;20166;-70
2021/09/01 16:43:34;;;;;;;14.23;8.90;;;16.00;99.90;;;;;;5135956;27;20166;-70
2021/09/01 16:46:01;;;;;;;14.30;9.23;;;16.00;99.90;;;;;;5135823;27;20174;-70
2021/09/01 17:22:43;;;;;;;16.05;10.88;;;17.70;99.90;;;;;;5090656;28;20618;-70
2021/09/01 17:25:09;;;;;;;20.48;11.13;;;15.60;99.90;;;;;;5090630;28;20639;-71
2021/09/01 17:27:42;;;;;;;18.38;13.07;;;15.60;99.90;;;;;;5090638;28;20187;-71
2021/09/01 17:30:11;;;;;;;23.95;13.68;;;15.50;99.90;;;;;;5090563;28;20215;-70
